Time;durP1;ratioP1;P1;durP2;ratioP2;P2;SDS_P1;SDS_P2;PMS_P1;PMS_P2;Temp;Humidity;BMP_temperature;BMP_pressure;BME280_temperature;BME280_humidity;BME280_pressure;Samples;Min_cycle;Max_cycle;Signal;HPM_P1;HPM_P2
2022/04/05 00:00:21;;;;;;;;;;;;;;;;;;1285639;23;948;-34
2022/04/05 00:00:51;;;;;;;;;;;;;;;;;;1286358;23;817;-35
2022/04/05 00:01:22;;;;;;;;;;;;;;;;;;1286943;23;750;-35
2022/04/05 00:01:52;;;;;;;;;;;;;;;;;;1287238;23;932;-33
2022/04/05 00:02:23;;;;;;;;;;;;;;;;;;1286694;23;919;-34
2022/04/05 00:02:53;;;;;;;;;;;;;;;;;;1286259;23;912;-31
2022/04/05 00:03:24;;;;;;;;;;;;;;;;;;1287959;23;804;-33
2022/04/05 00:03:55;;;;;;;;;;;;;;;;;;1286586;23;1223;-35
2022/04/05 00:04:25;;;;;;;;;;;;;;;;;;1286328;23;790;-33
2022/04/05 00:04:56;;;;;;;;;;;;;;;;;;1287373;23;820;-35
2022/04/05 00:05:26;;;;;;;;;;;;;;;;;;1279482;23;931;-35
2022/04/05 00:05:56;;;;;;;;;;;;;;;;;;1279473;23;778;-32
2022/04/05 00:06:26;;;;;;;;;;;;;;;;;;1280319;23;845;-36
2022/04/05 00:06:57;;;;;;;;;;;;;;;;;;1280091;23;877;-35
2022/04/05 00:07:27;;;;;;;;;;;;;;;;;;1286977;23;864;-36
2022/04/05 00:07:57;;;;;;;;;;;;;;;;;;1286422;23;861;-33
2022/04/05 00:08:28;;;;;;;;;;;;;;;;;;1287171;23;873;-35
2022/04/05 00:08:58;;;;;;;;;;;;;;;;;;1286648;23;801;-34
2022/04/05 00:09:28;;;;;;;;;;;;;;;;;;1286336;23;1987;-35
2022/04/05 00:09:59;;;;;;;;;;;;;;;;;;1287094;23;826;-33
2022/04/05 00:10:29;;;;;;;;;;;;;;;;;;1286873;23;1101;-34
2022/04/05 00:10:59;;;;;;;;;;;;;;;;;;1286704;23;861;-32
2022/04/05 00:11:29;;;;;;;;;;;;;;;;;;1287191;23;1134;-35
2022/04/05 00:12:01;;;;;;;;;;;;;;;;;;1286717;23;944;-33
2022/04/05 00:12:31;;;;;;;;;;;;;;;;;;1286089;23;805;-35
2022/04/05 00:13:02;;;;;;;;;;;;;;;;;;1285952;23;853;-32
2022/04/05 00:13:33;;;;;;;;;;;;;;;;;;1286894;23;892;-33
2022/04/05 00:14:03;;;;;;;;;;;;;;;;;;1287295;23;789;-35
2022/04/05 00:14:34;;;;;;;;;;;;;;;;;;1286294;23;797;-35
2022/04/05 00:15:05;;;;;;;;;;;;;;;;;;1286244;23;852;-36
2022/04/05 00:15:35;;;;;;;;;;;;;;;;;;1287523;23;980;-30
2022/04/05 00:16:06;;;;;;;;;;;;;;;;;;1285883;23;991;-32
2022/04/05 00:16:36;;;;;;;;;;;;;;;;;;1286487;23;947;-32
2022/04/05 00:17:06;;;;;;;;;;;;;;;;;;1286536;23;861;-33
2022/04/05 00:17:37;;;;;;;;;;;;;;;;;;1286333;23;805;-35
2022/04/05 00:18:07;;;;;;;;;;;;;;;;;;1286274;23;809;-31
2022/04/05 00:18:38;;;;;;;;;;;;;;;;;;1286628;23;975;-35
2022/04/05 00:19:09;;;;;;;;;;;;;;;;;;1286794;23;1003;-34
2022/04/05 00:19:39;;;;;;;;;;;;;;;;;;1286629;23;841;-34
2022/04/05 00:20:10;;;;;;;;;;;;;;;;;;1286310;23;892;-33
2022/04/05 00:20:40;;;;;;;;;;;;;;;;;;1286555;23;928;-33
2022/04/05 00:21:10;;;;;;;;;;;;;;;;;;1286886;23;904;-34
2022/04/05 00:21:41;;;;;;;;;;;;;;;;;;1286687;23;928;-37
2022/04/05 00:22:11;;;;;;;;;;;;;;;;;;1286411;23;778;-32
2022/04/05 00:22:41;;;;;;;;;;;;;;;;;;1286503;23;936;-30
2022/04/05 00:23:12;;;;;;;;;;;;;;;;;;1286531;23;869;-32
2022/04/05 00:23:42;;;;;;;;;;;;;;;;;;1286275;23;927;-36
2022/04/05 00:24:12;;;;;;;;;;;;;;;;;;1286929;23;948;-33
2022/04/05 00:24:43;;;;;;;;;;;;;;;;;;1286249;23;936;-35
2022/04/05 00:25:13;;;;;;;;;;;;;;;;;;1286046;23;948;-31
2022/04/05 00:25:43;;;;;;;;;;;;;;;;;;1286920;23;936;-33
2022/04/05 00:26:14;;;;;;;;;;;;;;;;;;1287571;23;849;-32
2022/04/05 00:26:44;;;;;;;;;;;;;;;;;;1286794;23;991;-35
2022/04/05 00:27:14;;;;;;;;;;;;;;;;;;1286228;23;900;-33
2022/04/05 00:27:45;;;;;;;;;;;;;;;;;;1286655;23;924;-35
2022/04/05 00:28:16;;;;;;;;;;;;;;;;;;1287061;23;791;-34
2022/04/05 00:28:46;;;;;;;;;;;;;;;;;;1286969;23;885;-36
2022/04/05 00:29:16;;;;;;;;;;;;;;;;;;1286867;23;1908;-36
2022/04/05 00:29:47;;;;;;;;;;;;;;;;;;1286330;23;947;-34
2022/04/05 00:30:17;;;;;;;;;;;;;;;;;;1287152;23;789;-32
2022/04/05 00:30:47;;;;;;;;;;;;;;;;;;1286540;23;939;-35
2022/04/05 00:31:18;;;;;;;;;;;;;;;;;;1285999;23;888;-32
2022/04/05 00:31:49;;;;;;;;;;;;;;;;;;1286416;23;699;-33
2022/04/05 00:32:19;;;;;;;;;;;;;;;;;;1286907;23;920;-35
2022/04/05 00:32:50;;;;;;;;;;;;;;;;;;1287010;23;857;-31
2022/04/05 00:33:20;;;;;;;;;;;;;;;;;;1286386;23;813;-36
2022/04/05 00:33:51;;;;;;;;;;;;;;;;;;1286504;23;798;-33
2022/04/05 00:34:25;;;;;;;;;;;;;;;;;;1286658;23;868;-34
2022/04/05 00:34:55;;;;;;;;;;;;;;;;;;1286876;23;745;-35
2022/04/05 00:35:25;;;;;;;;;;;;;;;;;;1287556;23;932;-36
2022/04/05 00:35:56;;;;;;;;;;;;;;;;;;1285680;23;832;-33
2022/04/05 00:36:26;;;;;;;;;;;;;;;;;;1286600;23;785;-36
2022/04/05 00:36:56;;;;;;;;;;;;;;;;;;1285797;23;956;-36
2022/04/05 00:37:27;;;;;;;;;;;;;;;;;;1287909;23;845;-34
2022/04/05 00:37:57;;;;;;;;;;;;;;;;;;1285921;23;814;-35
2022/04/05 00:38:27;;;;;;;;;;;;;;;;;;1286273;23;1003;-34
2022/04/05 00:38:58;;;;;;;;;;;;;;;;;;1285903;23;805;-36
2022/04/05 00:39:29;;;;;;;;;;;;;;;;;;1286458;23;921;-32
2022/04/05 00:39:59;;;;;;;;;;;;;;;;;;1286833;23;893;-34
2022/04/05 00:40:30;;;;;;;;;;;;;;;;;;1287010;23;801;-36
2022/04/05 00:41:00;;;;;;;;;;;;;;;;;;1286502;23;909;-31
2022/04/05 00:41:30;;;;;;;;;;;;;;;;;;1286352;23;869;-35
2022/04/05 00:42:01;;;;;;;;;;;;;;;;;;1287554;23;813;-34
2022/04/05 00:42:32;;;;;;;;;;;;;;;;;;1285155;23;920;-34
2022/04/05 00:43:05;;;;;;;;;;;;;;;;;;1285950;23;852;-34
2022/04/05 00:43:35;;;;;;;;;;;;;;;;;;1285958;23;952;-33
2022/04/05 00:44:06;;;;;;;;;;;;;;;;;;1285291;23;889;-34
2022/04/05 00:44:37;;;;;;;;;;;;;;;;;;1287035;23;817;-35
2022/04/05 00:45:08;;;;;;;;;;;;;;;;;;1285958;23;936;-32
2022/04/05 00:45:38;;;;;;;;;;;;;;;;;;1286046;23;1427;-35
2022/04/05 00:46:08;;;;;;;;;;;;;;;;;;1286023;23;983;-33
2022/04/05 00:46:39;;;;;;;;;;;;;;;;;;1287063;23;813;-34
2022/04/05 00:47:20;;;;;;;;;;;;;;;;;;1287269;23;1146;-33
2022/04/05 00:47:51;;;;;;;;;;;;;;;;;;1287322;23;872;-35
2022/04/05 00:48:50;;;;;;;;;;;;;;;;;;1288086;23;884;-32
2022/04/05 00:49:27;;;;;;;;;;;;;;;;;;1266836;23;1905;-35
2022/04/05 00:49:57;;;;;;;;;;;;;;;;;;1287001;23;951;-33
2022/04/05 00:50:29;;;;;;;;;;;;;;;;;;1286433;23;770;-35
2022/04/05 00:50:59;;;;;;;;;;;;;;;;;;1287924;23;1378;-36
2022/04/05 00:51:30;;;;;;;;;;;;;;;;;;1287340;23;892;-36
2022/04/05 00:52:00;;;;;;;;;;;;;;;;;;1287113;23;920;-33
2022/04/05 00:52:30;;;;;;;;;;;;;;;;;;1286944;23;786;-33
2022/04/05 00:53:02;;;;;;;;;;;;;;;;;;1286713;23;825;-30
2022/04/05 00:53:33;;;;;;;;;;;;;;;;;;1286679;23;781;-34
2022/04/05 00:54:04;;;;;;;;;;;;;;;;;;1287146;23;960;-36
2022/04/05 00:54:35;;;;;;;;;;;;;;;;;;1286457;23;806;-35
2022/04/05 00:55:06;;;;;;;;;;;;;;;;;;1288094;23;979;-35
2022/04/05 00:55:37;;;;;;;;;;;;;;;;;;1287255;23;873;-33
2022/04/05 00:56:08;;;;;;;;;;;;;;;;;;1288335;23;869;-34
2022/04/05 00:56:39;;;;;;;;;;;;;;;;;;1287432;23;1042;-35
2022/04/05 00:57:11;;;;;;;;;;;;;;;;;;1286230;23;976;-35
2022/04/05 00:57:41;;;;;;;;;;;;;;;;;;1286371;23;944;-35
2022/04/05 00:58:14;;;;;;;;;;;;;;;;;;1287088;23;774;-33
2022/04/05 00:58:52;;;;;;;;;;;;;;;;;;1286608;23;794;-30
2022/04/05 00:59:25;;;;;;;;;;;;;;;;;;1286507;23;884;-34
2022/04/05 00:59:57;;;;;;;;;;;;;;;;;;1287996;23;916;-34
2022/04/05 01:00:28;;;;;;;;;;;;;;;;;;1286005;23;941;-35
2022/04/05 01:00:58;;;;;;;;;;;;;;;;;;1286939;23;916;-36
2022/04/05 01:01:29;;;;;;;;;;;;;;;;;;1287666;23;821;-35
2022/04/05 01:02:00;;;;;;;;;;;;;;;;;;1286544;23;999;-35
2022/04/05 01:02:31;;;;;;;;;;;;;;;;;;1287062;23;984;-36
2022/04/05 01:03:02;;;;;;;;;;;;;;;;;;1287369;23;999;-35
2022/04/05 01:03:32;;;;;;;;;;;;;;;;;;1287027;23;920;-34
2022/04/05 01:04:03;;;;;;;;;;;;;;;;;;1286364;23;1290;-34
2022/04/05 01:04:34;;;;;;;;;;;;;;;;;;1287122;23;679;-36
2022/04/05 01:05:05;;;;;;;;;;;;;;;;;;1287119;23;848;-33
2022/04/05 01:05:36;;;;;;;;;;;;;;;;;;1286764;23;926;-33
2022/04/05 01:06:06;;;;;;;;;;;;;;;;;;1288692;23;794;-35
2022/04/05 01:06:43;;;;;;;;;;;;;;;;;;1287629;23;754;-35
2022/04/05 01:07:19;;;;;;;;;;;;;;;;;;1287160;23;892;-36
2022/04/05 01:07:50;;;;;;;;;;;;;;;;;;1286817;23;884;-35
2022/04/05 01:08:21;;;;;;;;;;;;;;;;;;1286785;23;889;-32
2022/04/05 01:08:52;;;;;;;;;;;;;;;;;;1288127;23;812;-32
2022/04/05 01:09:23;;;;;;;;;;;;;;;;;;1287481;23;1944;-34
2022/04/05 01:09:54;;;;;;;;;;;;;;;;;;1286352;23;868;-33
2022/04/05 01:10:26;;;;;;;;;;;;;;;;;;1286348;23;806;-35
2022/04/05 01:10:59;;;;;;;;;;;;;;;;;;1286987;23;853;-34
2022/04/05 01:11:30;;;;;;;;;;;;;;;;;;1287209;23;893;-33
2022/04/05 01:12:00;;;;;;;;;;;;;;;;;;1286719;23;794;-35
2022/04/05 01:12:30;;;;;;;;;;;;;;;;;;1286416;23;777;-36
2022/04/05 01:13:01;;;;;;;;;;;;;;;;;;1287653;23;953;-35
2022/04/05 01:13:31;;;;;;;;;;;;;;;;;;1286657;23;834;-36
2022/04/05 01:14:02;;;;;;;;;;;;;;;;;;1287181;23;777;-34
2022/04/05 01:14:32;;;;;;;;;;;;;;;;;;1286953;23;877;-36
2022/04/05 01:15:03;;;;;;;;;;;;;;;;;;1287279;23;928;-34
2022/04/05 01:15:34;;;;;;;;;;;;;;;;;;1286920;23;904;-35
2022/04/05 01:16:04;;;;;;;;;;;;;;;;;;1285343;23;861;-33
2022/04/05 01:16:38;;;;;;;;;;;;;;;;;;1288031;23;949;-32
2022/04/05 01:17:09;;;;;;;;;;;;;;;;;;1286366;23;853;-35
2022/04/05 01:17:39;;;;;;;;;;;;;;;;;;1287215;23;770;-35
2022/04/05 01:18:09;;;;;;;;;;;;;;;;;;1286899;23;821;-34
2022/04/05 01:18:40;;;;;;;;;;;;;;;;;;1286276;23;963;-36
2022/04/05 01:19:10;;;;;;;;;;;;;;;;;;1287165;23;861;-34
2022/04/05 01:19:40;;;;;;;;;;;;;;;;;;1286352;23;813;-33
2022/04/05 01:20:11;;;;;;;;;;;;;;;;;;1287104;23;932;-30
2022/04/05 01:20:43;;;;;;;;;;;;;;;;;;1286420;23;861;-35
2022/04/05 01:21:14;;;;;;;;;;;;;;;;;;1287957;23;864;-35
2022/04/05 01:21:44;;;;;;;;;;;;;;;;;;1287194;23;829;-32
2022/04/05 01:22:15;;;;;;;;;;;;;;;;;;1286329;23;794;-31
2022/04/05 01:22:46;;;;;;;;;;;;;;;;;;1286994;23;849;-33
2022/04/05 01:23:20;;;;;;;;;;;;;;;;;;1286533;23;884;-35
2022/04/05 01:24:03;;;;;;;;;;;;;;;;;;1285709;23;849;-29
2022/04/05 01:24:33;;;;;;;;;;;;;;;;;;1286138;23;1355;-31
2022/04/05 01:25:04;;;;;;;;;;;;;;;;;;1287155;23;860;-34
2022/04/05 01:25:34;;;;;;;;;;;;;;;;;;1286350;23;904;-34
2022/04/05 01:26:04;;;;;;;;;;;;;;;;;;1287152;23;802;-35
2022/04/05 01:26:42;;;;;;;;;;;;;;;;;;1287627;23;790;-35
2022/04/05 01:27:17;;;;;;;;;;;;;;;;;;1288088;23;790;-35
2022/04/05 01:27:47;;;;;;;;;;;;;;;;;;1288819;23;679;-36
2022/04/05 01:28:19;;;;;;;;;;;;;;;;;;1286286;23;821;-32
2022/04/05 01:28:49;;;;;;;;;;;;;;;;;;1287176;23;928;-33
2022/04/05 01:29:21;;;;;;;;;;;;;;;;;;1286220;23;1948;-32
2022/04/05 01:29:51;;;;;;;;;;;;;;;;;;1286535;23;825;-32
2022/04/05 01:30:21;;;;;;;;;;;;;;;;;;1286385;23;778;-33
2022/04/05 01:30:52;;;;;;;;;;;;;;;;;;1286564;23;908;-34
2022/04/05 01:31:23;;;;;;;;;;;;;;;;;;1285981;23;845;-31
2022/04/05 01:32:03;;;;;;;;;;;;;;;;;;1285144;23;853;-35
2022/04/05 01:32:35;;;;;;;;;;;;;;;;;;1286236;23;893;-31
2022/04/05 01:33:05;;;;;;;;;;;;;;;;;;1287748;23;845;-35
2022/04/05 01:33:35;;;;;;;;;;;;;;;;;;1286863;23;987;-31
2022/04/05 01:34:06;;;;;;;;;;;;;;;;;;1286822;23;943;-34
2022/04/05 01:34:37;;;;;;;;;;;;;;;;;;1286601;23;784;-34
2022/04/05 01:35:08;;;;;;;;;;;;;;;;;;1287390;23;943;-34
2022/04/05 01:35:39;;;;;;;;;;;;;;;;;;1285523;23;856;-32
2022/04/05 01:36:19;;;;;;;;;;;;;;;;;;1286606;23;879;-31
2022/04/05 01:37:00;;;;;;;;;;;;;;;;;;1287038;23;1189;-34
2022/04/05 01:37:32;;;;;;;;;;;;;;;;;;1287337;23;773;-34
2022/04/05 01:38:03;;;;;;;;;;;;;;;;;;1286002;23;824;-33
2022/04/05 01:38:34;;;;;;;;;;;;;;;;;;1285415;23;900;-36
2022/04/05 01:39:06;;;;;;;;;;;;;;;;;;1288194;23;821;-35
2022/04/05 01:39:38;;;;;;;;;;;;;;;;;;1288217;23;868;-34
2022/04/05 01:40:08;;;;;;;;;;;;;;;;;;1288868;23;991;-35
2022/04/05 01:40:40;;;;;;;;;;;;;;;;;;1287790;23;860;-34
2022/04/05 01:41:10;;;;;;;;;;;;;;;;;;1287193;23;749;-35
2022/04/05 01:41:41;;;;;;;;;;;;;;;;;;1288215;23;798;-35
2022/04/05 01:42:12;;;;;;;;;;;;;;;;;;1286901;23;869;-33
2022/04/05 01:42:43;;;;;;;;;;;;;;;;;;1287133;23;801;-32
2022/04/05 01:43:13;;;;;;;;;;;;;;;;;;1286257;23;919;-35
2022/04/05 01:43:44;;;;;;;;;;;;;;;;;;1286486;23;939;-35
2022/04/05 01:44:14;;;;;;;;;;;;;;;;;;1287226;23;868;-31
2022/04/05 01:44:45;;;;;;;;;;;;;;;;;;1286906;23;789;-34
2022/04/05 01:45:15;;;;;;;;;;;;;;;;;;1285427;23;853;-35
2022/04/05 01:45:46;;;;;;;;;;;;;;;;;;1286780;23;912;-35
2022/04/05 01:46:16;;;;;;;;;;;;;;;;;;1286728;23;972;-33
2022/04/05 01:46:46;;;;;;;;;;;;;;;;;;1285742;23;918;-36
2022/04/05 01:47:18;;;;;;;;;;;;;;;;;;1288065;23;817;-34
2022/04/05 01:47:48;;;;;;;;;;;;;;;;;;1286254;23;868;-34
2022/04/05 01:48:18;;;;;;;;;;;;;;;;;;1286762;23;881;-35
2022/04/05 01:48:50;;;;;;;;;;;;;;;;;;1286564;23;1007;-37
2022/04/05 01:49:20;;;;;;;;;;;;;;;;;;1287308;23;1905;-34
2022/04/05 01:49:51;;;;;;;;;;;;;;;;;;1286982;23;892;-32
2022/04/05 01:50:21;;;;;;;;;;;;;;;;;;1288100;23;969;-32
2022/04/05 01:50:51;;;;;;;;;;;;;;;;;;1286629;23;825;-33
2022/04/05 01:51:22;;;;;;;;;;;;;;;;;;1286454;23;805;-35
2022/04/05 01:51:52;;;;;;;;;;;;;;;;;;1287781;23;909;-35
2022/04/05 01:52:22;;;;;;;;;;;;;;;;;;1286321;23;824;-34
2022/04/05 01:52:53;;;;;;;;;;;;;;;;;;1285836;23;944;-36
2022/04/05 01:53:23;;;;;;;;;;;;;;;;;;1287386;23;1038;-34
2022/04/05 01:53:57;;;;;;;;;;;;;;;;;;1285740;23;900;-34
2022/04/05 01:54:27;;;;;;;;;;;;;;;;;;1286447;23;821;-35
2022/04/05 01:54:58;;;;;;;;;;;;;;;;;;1286202;23;828;-34
2022/04/05 01:55:28;;;;;;;;;;;;;;;;;;1280315;23;667;-36
2022/04/05 01:55:58;;;;;;;;;;;;;;;;;;1280480;23;908;-36
2022/04/05 01:56:28;;;;;;;;;;;;;;;;;;1281203;23;948;-36
2022/04/05 01:56:59;;;;;;;;;;;;;;;;;;1280645;23;758;-33
2022/04/05 01:57:29;;;;;;;;;;;;;;;;;;1287101;23;824;-35
2022/04/05 01:58:00;;;;;;;;;;;;;;;;;;1286096;23;900;-36
2022/04/05 01:58:31;;;;;;;;;;;;;;;;;;1287011;23;818;-33
2022/04/05 01:59:01;;;;;;;;;;;;;;;;;;1286757;23;952;-32
2022/04/05 01:59:33;;;;;;;;;;;;;;;;;;1286792;23;849;-33
2022/04/05 02:00:04;;;;;;;;;;;;;;;;;;1286801;23;770;-34
2022/04/05 02:00:41;;;;;;;;;;;;;;;;;;1286306;23;663;-33
2022/04/05 02:01:12;;;;;;;;;;;;;;;;;;1287872;23;758;-34
2022/04/05 02:01:43;;;;;;;;;;;;;;;;;;1287265;23;963;-35
2022/04/05 02:02:13;;;;;;;;;;;;;;;;;;1286118;23;820;-34
2022/04/05 02:02:43;;;;;;;;;;;;;;;;;;1287207;23;777;-33
2022/04/05 02:03:14;;;;;;;;;;;;;;;;;;1287026;23;777;-36
2022/04/05 02:03:44;;;;;;;;;;;;;;;;;;1280270;23;1278;-36
2022/04/05 02:04:14;;;;;;;;;;;;;;;;;;1279492;23;901;-36
2022/04/05 02:04:45;;;;;;;;;;;;;;;;;;1280344;23;948;-32
2022/04/05 02:05:16;;;;;;;;;;;;;;;;;;1279946;23;786;-34
2022/04/05 02:05:48;;;;;;;;;;;;;;;;;;1286487;23;928;-33
2022/04/05 02:06:19;;;;;;;;;;;;;;;;;;1286995;23;779;-31
2022/04/05 02:06:50;;;;;;;;;;;;;;;;;;1287048;23;861;-33
2022/04/05 02:07:20;;;;;;;;;;;;;;;;;;1286299;23;967;-36
2022/04/05 02:07:51;;;;;;;;;;;;;;;;;;1286486;23;781;-32
2022/04/05 02:08:21;;;;;;;;;;;;;;;;;;1279602;23;1219;-35
2022/04/05 02:08:52;;;;;;;;;;;;;;;;;;1280461;23;754;-36
2022/04/05 02:09:22;;;;;;;;;;;;;;;;;;1274813;23;1917;-33
2022/04/05 02:09:53;;;;;;;;;;;;;;;;;;1273655;23;1343;-35
2022/04/05 02:10:23;;;;;;;;;;;;;;;;;;1279926;23;782;-31
2022/04/05 02:10:54;;;;;;;;;;;;;;;;;;1281123;23;847;-32
2022/04/05 02:11:26;;;;;;;;;;;;;;;;;;1279919;23;825;-35
2022/04/05 02:12:02;;;;;;;;;;;;;;;;;;1279575;23;1505;-34
2022/04/05 02:12:53;;;;;;;;;;;;;;;;;;1279298;23;1251;-31
2022/04/05 02:13:38;;;;;;;;;;;;;;;;;;1281840;23;789;-34
2022/04/05 02:14:09;;;;;;;;;;;;;;;;;;1280160;23;1083;-32
2022/04/05 02:14:39;;;;;;;;;;;;;;;;;;1272705;23;1364;-32
2022/04/05 02:15:14;;;;;;;;;;;;;;;;;;1268147;23;1235;-33
2022/04/05 02:15:50;;;;;;;;;;;;;;;;;;1269673;23;786;-31
2022/04/05 02:16:20;;;;;;;;;;;;;;;;;;1276376;23;877;-34
2022/04/05 02:16:51;;;;;;;;;;;;;;;;;;1280184;23;774;-34
2022/04/05 02:17:22;;;;;;;;;;;;;;;;;;1279638;23;1147;-34
2022/04/05 02:17:55;;;;;;;;;;;;;;;;;;1279772;23;1066;-35
2022/04/05 02:18:29;;;;;;;;;;;;;;;;;;1279365;23;762;-31
2022/04/05 02:19:00;;;;;;;;;;;;;;;;;;1281712;23;865;-33
2022/04/05 02:19:30;;;;;;;;;;;;;;;;;;1280428;23;778;-30
2022/04/05 02:20:01;;;;;;;;;;;;;;;;;;1280667;23;1478;-31
2022/04/05 02:20:33;;;;;;;;;;;;;;;;;;1280988;23;1144;-34
2022/04/05 02:21:05;;;;;;;;;;;;;;;;;;1273260;23;2149;-35
2022/04/05 02:21:36;;;;;;;;;;;;;;;;;;1274075;23;1327;-33
2022/04/05 02:22:07;;;;;;;;;;;;;;;;;;1279933;23;790;-35
2022/04/05 02:22:38;;;;;;;;;;;;;;;;;;1273690;23;1306;-33
2022/04/05 02:23:17;;;;;;;;;;;;;;;;;;1270078;23;873;-29
2022/04/05 02:24:06;;;;;;;;;;;;;;;;;;1267849;23;1302;-32
2022/04/05 02:24:40;;;;;;;;;;;;;;;;;;1274108;23;834;-34
2022/04/05 02:25:11;;;;;;;;;;;;;;;;;;1278766;23;802;-35
2022/04/05 02:25:44;;;;;;;;;;;;;;;;;;1280588;23;774;-36
2022/04/05 02:26:16;;;;;;;;;;;;;;;;;;1279589;23;1286;-33
2022/04/05 02:26:52;;;;;;;;;;;;;;;;;;1280223;23;1237;-35
2022/04/05 02:27:25;;;;;;;;;;;;;;;;;;1280379;23;1127;-33
2022/04/05 02:27:56;;;;;;;;;;;;;;;;;;1278887;23;1171;-36
2022/04/05 02:28:33;;;;;;;;;;;;;;;;;;1274191;23;1571;-33
2022/04/05 02:29:08;;;;;;;;;;;;;;;;;;1269805;23;1129;-33
2022/04/05 02:29:43;;;;;;;;;;;;;;;;;;1270444;23;1324;-36
2022/04/05 02:30:21;;;;;;;;;;;;;;;;;;1269625;23;1476;-35
2022/04/05 02:30:56;;;;;;;;;;;;;;;;;;1266379;23;1201;-35
2022/04/05 02:31:33;;;;;;;;;;;;;;;;;;1271871;23;939;-32
2022/04/05 02:32:04;;;;;;;;;;;;;;;;;;1267992;23;886;-33
2022/04/05 02:32:34;;;;;;;;;;;;;;;;;;1269711;23;846;-33
2022/04/05 02:33:05;;;;;;;;;;;;;;;;;;1273790;23;798;-33
2022/04/05 02:33:36;;;;;;;;;;;;;;;;;;1274192;23;1189;-33
2022/04/05 02:34:11;;;;;;;;;;;;;;;;;;1274293;23;1120;-32
2022/04/05 02:34:45;;;;;;;;;;;;;;;;;;1274268;23;751;-35
2022/04/05 02:35:18;;;;;;;;;;;;;;;;;;1275667;23;1105;-33
2022/04/05 02:35:51;;;;;;;;;;;;;;;;;;1273367;23;1070;-32
2022/04/05 02:36:22;;;;;;;;;;;;;;;;;;1275062;23;1451;-32
2022/04/05 02:36:55;;;;;;;;;;;;;;;;;;1269150;23;1626;-34
2022/04/05 02:37:26;;;;;;;;;;;;;;;;;;1274405;23;1235;-32
2022/04/05 02:37:59;;;;;;;;;;;;;;;;;;1274000;23;1183;-32
2022/04/05 02:38:30;;;;;;;;;;;;;;;;;;1275781;23;779;-35
2022/04/05 02:39:02;;;;;;;;;;;;;;;;;;1273619;23;1215;-34
2022/04/05 02:39:35;;;;;;;;;;;;;;;;;;1274481;23;814;-34
2022/04/05 02:40:07;;;;;;;;;;;;;;;;;;1280724;23;825;-33
2022/04/05 02:40:38;;;;;;;;;;;;;;;;;;1274390;23;1282;-31
2022/04/05 02:41:11;;;;;;;;;;;;;;;;;;1273592;23;1557;-34
2022/04/05 02:41:42;;;;;;;;;;;;;;;;;;1273325;23;794;-32
2022/04/05 02:42:13;;;;;;;;;;;;;;;;;;1268634;23;1172;-35
2022/04/05 02:42:45;;;;;;;;;;;;;;;;;;1275988;23;1117;-31
2022/04/05 02:43:18;;;;;;;;;;;;;;;;;;1275051;23;1116;-34
2022/04/05 02:43:48;;;;;;;;;;;;;;;;;;1275351;23;827;-32
2022/04/05 02:44:21;;;;;;;;;;;;;;;;;;1280147;23;1513;-33
2022/04/05 02:44:53;;;;;;;;;;;;;;;;;;1274012;23;875;-35
2022/04/05 02:45:24;;;;;;;;;;;;;;;;;;1280784;23;958;-34
2022/04/05 02:45:56;;;;;;;;;;;;;;;;;;1273494;23;1215;-35
2022/04/05 02:46:27;;;;;;;;;;;;;;;;;;1268540;23;1286;-34
2022/04/05 02:47:04;;;;;;;;;;;;;;;;;;1274664;23;882;-35
2022/04/05 02:47:36;;;;;;;;;;;;;;;;;;1270423;23;1208;-35
2022/04/05 02:48:07;;;;;;;;;;;;;;;;;;1268661;23;1203;-35
2022/04/05 02:48:43;;;;;;;;;;;;;;;;;;1267048;23;1316;-34
2022/04/05 02:49:17;;;;;;;;;;;;;;;;;;1263498;23;1947;-33
2022/04/05 02:49:52;;;;;;;;;;;;;;;;;;1269620;23;834;-35
2022/04/05 02:50:28;;;;;;;;;;;;;;;;;;1272291;23;1167;-33
2022/04/05 02:50:58;;;;;;;;;;;;;;;;;;1269697;23;1232;-35
2022/04/05 02:51:29;;;;;;;;;;;;;;;;;;1268838;23;1147;-33
2022/04/05 02:52:02;;;;;;;;;;;;;;;;;;1267729;23;806;-35
2022/04/05 02:52:41;;;;;;;;;;;;;;;;;;1269977;23;2178;-34
2022/04/05 02:53:14;;;;;;;;;;;;;;;;;;1270500;23;2108;-33
2022/04/05 02:53:46;;;;;;;;;;;;;;;;;;1273932;23;1234;-35
2022/04/05 02:54:17;;;;;;;;;;;;;;;;;;1274500;23;1148;-33
2022/04/05 02:54:47;;;;;;;;;;;;;;;;;;1280338;23;806;-32
2022/04/05 02:55:20;;;;;;;;;;;;;;;;;;1280214;23;1065;-35
2022/04/05 02:55:51;;;;;;;;;;;;;;;;;;1280167;23;1298;-36
2022/04/05 02:56:22;;;;;;;;;;;;;;;;;;1279056;23;974;-32
2022/04/05 02:56:52;;;;;;;;;;;;;;;;;;1279718;23;1231;-34
2022/04/05 02:57:23;;;;;;;;;;;;;;;;;;1280323;23;1311;-35
2022/04/05 02:57:57;;;;;;;;;;;;;;;;;;1273064;23;1128;-35
2022/04/05 02:58:36;;;;;;;;;;;;;;;;;;1273043;23;1132;-33
2022/04/05 02:59:07;;;;;;;;;;;;;;;;;;1269596;23;1243;-35
2022/04/05 02:59:37;;;;;;;;;;;;;;;;;;1266024;23;1133;-36
2022/04/05 03:00:08;;;;;;;;;;;;;;;;;;1267934;23;897;-31
2022/04/05 03:00:39;;;;;;;;;;;;;;;;;;1274213;23;979;-33
2022/04/05 03:01:16;;;;;;;;;;;;;;;;;;1274577;23;1187;-36
2022/04/05 03:01:47;;;;;;;;;;;;;;;;;;1279767;23;793;-33
2022/04/05 03:02:21;;;;;;;;;;;;;;;;;;1273908;23;2152;-33
2022/04/05 03:02:52;;;;;;;;;;;;;;;;;;1274800;23;1140;-32
2022/04/05 03:03:24;;;;;;;;;;;;;;;;;;1279531;23;1414;-34
2022/04/05 03:03:57;;;;;;;;;;;;;;;;;;1280736;23;1330;-34
2022/04/05 03:04:28;;;;;;;;;;;;;;;;;;1279940;23;1336;-33
2022/04/05 03:04:59;;;;;;;;;;;;;;;;;;1273525;23;1463;-33
2022/04/05 03:05:30;;;;;;;;;;;;;;;;;;1273504;23;811;-35
2022/04/05 03:06:05;;;;;;;;;;;;;;;;;;1273003;23;1345;-32
2022/04/05 03:06:36;;;;;;;;;;;;;;;;;;1274358;23;853;-36
2022/04/05 03:07:06;;;;;;;;;;;;;;;;;;1279704;23;1380;-33
2022/04/05 03:07:37;;;;;;;;;;;;;;;;;;1279684;23;1146;-33
2022/04/05 03:08:09;;;;;;;;;;;;;;;;;;1273278;23;1306;-35
2022/04/05 03:08:42;;;;;;;;;;;;;;;;;;1269190;23;1504;-34
2022/04/05 03:09:14;;;;;;;;;;;;;;;;;;1268331;23;1964;-34
2022/04/05 03:09:46;;;;;;;;;;;;;;;;;;1274304;23;770;-31
2022/04/05 03:10:18;;;;;;;;;;;;;;;;;;1275265;23;786;-35
2022/04/05 03:10:53;;;;;;;;;;;;;;;;;;1274764;23;1200;-35
2022/04/05 03:11:26;;;;;;;;;;;;;;;;;;1273879;23;1159;-35
2022/04/05 03:11:58;;;;;;;;;;;;;;;;;;1274578;23;806;-35
2022/04/05 03:12:29;;;;;;;;;;;;;;;;;;1274344;23;849;-34
2022/04/05 03:13:00;;;;;;;;;;;;;;;;;;1274268;23;771;-33
2022/04/05 03:13:32;;;;;;;;;;;;;;;;;;1279138;23;861;-32
2022/04/05 03:14:03;;;;;;;;;;;;;;;;;;1279908;23;782;-34
2022/04/05 03:14:34;;;;;;;;;;;;;;;;;;1279466;23;750;-31
2022/04/05 03:15:06;;;;;;;;;;;;;;;;;;1279968;23;1052;-35
2022/04/05 03:15:37;;;;;;;;;;;;;;;;;;1280212;23;837;-33
2022/04/05 03:16:09;;;;;;;;;;;;;;;;;;1280107;23;1229;-36
2022/04/05 03:16:41;;;;;;;;;;;;;;;;;;1275119;23;1438;-35
2022/04/05 03:17:18;;;;;;;;;;;;;;;;;;1281005;23;1366;-36
2022/04/05 03:17:49;;;;;;;;;;;;;;;;;;1280131;23;1215;-33
2022/04/05 03:18:25;;;;;;;;;;;;;;;;;;1273021;23;1219;-35
2022/04/05 03:18:56;;;;;;;;;;;;;;;;;;1274628;23;1475;-36
2022/04/05 03:19:27;;;;;;;;;;;;;;;;;;1266081;23;1160;-31
2022/04/05 03:20:01;;;;;;;;;;;;;;;;;;1261715;23;1411;-34
2022/04/05 03:20:34;;;;;;;;;;;;;;;;;;1267887;23;826;-33
2022/04/05 03:21:05;;;;;;;;;;;;;;;;;;1275890;23;763;-34
2022/04/05 03:21:36;;;;;;;;;;;;;;;;;;1273619;23;1340;-35
2022/04/05 03:22:08;;;;;;;;;;;;;;;;;;1280312;23;931;-35
2022/04/05 03:22:41;;;;;;;;;;;;;;;;;;1280242;23;810;-34
2022/04/05 03:23:11;;;;;;;;;;;;;;;;;;1279322;23;909;-35
2022/04/05 03:23:41;;;;;;;;;;;;;;;;;;1281391;23;940;-33
2022/04/05 03:24:12;;;;;;;;;;;;;;;;;;1281453;23;782;-36
2022/04/05 03:24:42;;;;;;;;;;;;;;;;;;1281082;23;826;-33
2022/04/05 03:25:13;;;;;;;;;;;;;;;;;;1280020;23;742;-36
2022/04/05 03:25:44;;;;;;;;;;;;;;;;;;1280184;23;1103;-33
2022/04/05 03:26:15;;;;;;;;;;;;;;;;;;1274135;23;1261;-34
2022/04/05 03:26:45;;;;;;;;;;;;;;;;;;1273303;23;849;-33
2022/04/05 03:27:17;;;;;;;;;;;;;;;;;;1268040;23;1292;-32
2022/04/05 03:27:47;;;;;;;;;;;;;;;;;;1267656;23;762;-36
2022/04/05 03:28:21;;;;;;;;;;;;;;;;;;1268689;23;1026;-35
2022/04/05 03:28:52;;;;;;;;;;;;;;;;;;1267673;23;810;-36
2022/04/05 03:29:23;;;;;;;;;;;;;;;;;;1273918;23;1952;-33
2022/04/05 03:29:54;;;;;;;;;;;;;;;;;;1268375;23;1314;-34
2022/04/05 03:30:26;;;;;;;;;;;;;;;;;;1269407;23;825;-32
2022/04/05 03:30:58;;;;;;;;;;;;;;;;;;1267125;23;1159;-32
2022/04/05 03:31:29;;;;;;;;;;;;;;;;;;1269141;23;1270;-33
2022/04/05 03:32:01;;;;;;;;;;;;;;;;;;1268372;23;2119;-35
2022/04/05 03:32:33;;;;;;;;;;;;;;;;;;1266656;23;975;-34
2022/04/05 03:33:03;;;;;;;;;;;;;;;;;;1268714;23;1128;-35
2022/04/05 03:33:35;;;;;;;;;;;;;;;;;;1268430;23;1362;-34
2022/04/05 03:34:08;;;;;;;;;;;;;;;;;;1273180;23;1117;-35
2022/04/05 03:34:40;;;;;;;;;;;;;;;;;;1266700;23;1229;-34
2022/04/05 03:35:11;;;;;;;;;;;;;;;;;;1262902;23;1204;-35
2022/04/05 03:35:42;;;;;;;;;;;;;;;;;;1270474;23;895;-35
2022/04/05 03:36:13;;;;;;;;;;;;;;;;;;1274762;23;959;-33
2022/04/05 03:36:43;;;;;;;;;;;;;;;;;;1273513;23;1276;-34
2022/04/05 03:37:14;;;;;;;;;;;;;;;;;;1280153;23;877;-35
2022/04/05 03:37:44;;;;;;;;;;;;;;;;;;1274754;23;1446;-35
2022/04/05 03:38:15;;;;;;;;;;;;;;;;;;1273330;23;1152;-35
2022/04/05 03:38:46;;;;;;;;;;;;;;;;;;1273663;23;1274;-34
2022/04/05 03:39:19;;;;;;;;;;;;;;;;;;1274096;23;803;-36
2022/04/05 03:39:49;;;;;;;;;;;;;;;;;;1280027;23;769;-36
2022/04/05 03:40:20;;;;;;;;;;;;;;;;;;1280267;23;893;-35
2022/04/05 03:40:53;;;;;;;;;;;;;;;;;;1280119;23;1218;-32
2022/04/05 03:41:23;;;;;;;;;;;;;;;;;;1279917;23;1400;-34
2022/04/05 03:41:54;;;;;;;;;;;;;;;;;;1280225;23;1420;-34
2022/04/05 03:42:25;;;;;;;;;;;;;;;;;;1279199;23;1472;-34
2022/04/05 03:42:55;;;;;;;;;;;;;;;;;;1279920;23;828;-33